createdAt,value
2022-11-13T00:02:06.135Z,12.33
2022-11-13T00:04:52.214Z,10.87
2022-11-13T00:07:38.105Z,14.03
2022-11-13T00:10:24.085Z,10.77
2022-11-13T00:13:14.720Z,13.17
2022-11-13T00:16:08.438Z,11.37
2022-11-13T00:18:55.183Z,12.43
2022-11-13T00:21:40.754Z,11.80
2022-11-13T00:24:26.483Z,13.00
2022-11-13T00:27:12.502Z,10.33
2022-11-13T00:29:58.453Z,12.20
2022-11-13T00:32:44.288Z,11.53
2022-11-13T00:35:32.545Z,12.30
2022-11-13T00:38:18.902Z,12.27
2022-11-13T00:41:05.540Z,11.60
2022-11-13T00:43:52.043Z,11.63
2022-11-13T00:46:38.459Z,13.97
2022-11-13T00:49:25.511Z,13.57
2022-11-13T00:52:11.590Z,9.23
2022-11-13T00:54:57.385Z,12.60
2022-11-13T00:57:43.332Z,9.93
2022-11-13T01:00:30.184Z,12.93
2022-11-13T01:03:18.243Z,10.90
2022-11-13T01:06:30.676Z,12.47
2022-11-13T01:09:16.940Z,11.77
2022-11-13T01:12:02.910Z,14.47
2022-11-13T01:14:48.821Z,13.83
2022-11-13T01:17:35.583Z,11.40
2022-11-13T01:20:24.057Z,13.33
2022-11-13T01:23:09.966Z,11.30
2022-11-13T01:25:56.247Z,11.90
2022-11-13T01:28:43.952Z,12.10
2022-11-13T01:31:30.966Z,11.77
2022-11-13T01:34:16.964Z,13.60
2022-11-13T01:37:03.136Z,15.33
2022-11-13T01:39:52.328Z,17.67
2022-11-13T01:42:38.244Z,13.77
2022-11-13T01:45:58.615Z,13.53
2022-11-13T01:48:55.201Z,15.33
2022-11-13T01:52:02.945Z,14.33
2022-11-13T01:55:00.197Z,13.27
2022-11-13T01:57:46.652Z,14.47
2022-11-13T02:00:33.066Z,13.47
2022-11-13T02:03:19.090Z,12.97
2022-11-13T02:06:05.517Z,15.53
2022-11-13T02:08:52.256Z,12.93
2022-11-13T02:11:39.220Z,13.87
2022-11-13T02:14:29.157Z,14.33
2022-11-13T02:17:43.659Z,12.70
2022-11-13T02:20:56.217Z,14.60
2022-11-13T02:24:28.383Z,15.70
2022-11-13T02:27:36.837Z,16.23
2022-11-13T02:30:27.997Z,17.23
2022-11-13T02:33:22.681Z,18.00
2022-11-13T02:36:10.948Z,15.33
2022-11-13T02:39:01.867Z,13.47
2022-11-13T02:41:48.030Z,16.27
2022-11-13T02:44:34.702Z,15.67
2022-11-13T02:47:20.999Z,15.57
2022-11-13T02:50:08.768Z,14.30
2022-11-13T02:52:54.932Z,18.33
2022-11-13T02:55:41.589Z,13.93
2022-11-13T02:58:28.022Z,13.57
2022-11-13T03:01:14.721Z,13.80
2022-11-13T03:04:01.383Z,15.63
2022-11-13T03:06:47.422Z,15.57
2022-11-13T03:09:33.841Z,18.77
2022-11-13T03:12:19.701Z,15.13
2022-11-13T03:15:07.148Z,16.50
2022-11-13T03:17:53.223Z,18.43
2022-11-13T03:20:42.297Z,17.57
2022-11-13T03:23:28.834Z,14.57
2022-11-13T03:26:17.652Z,15.93
2022-11-13T03:29:04.216Z,15.00
2022-11-13T03:31:50.219Z,15.80
2022-11-13T03:34:36.200Z,18.47
2022-11-13T03:37:22.807Z,15.73
2022-11-13T03:40:09.309Z,16.47
2022-11-13T03:42:55.512Z,16.40
2022-11-13T03:45:45.230Z,20.40
2022-11-13T03:48:31.275Z,19.43
2022-11-13T03:51:17.948Z,18.63
2022-11-13T03:54:04.046Z,20.03
2022-11-13T03:56:50.574Z,20.13
2022-11-13T03:59:36.773Z,18.93
2022-11-13T04:02:23.175Z,19.87
2022-11-13T04:05:09.824Z,19.00
2022-11-13T04:07:55.881Z,17.30
2022-11-13T04:10:42.592Z,18.87
2022-11-13T04:13:28.686Z,15.27
2022-11-13T04:16:14.820Z,20.30
2022-11-13T04:19:00.773Z,20.67
2022-11-13T04:21:47.131Z,19.90
2022-11-13T04:24:33.060Z,16.23
2022-11-13T04:27:19.466Z,17.97
2022-11-13T04:30:06.625Z,14.90
2022-11-13T04:32:52.365Z,18.07
2022-11-13T04:35:38.258Z,18.43
2022-11-13T04:38:24.098Z,16.53
2022-11-13T04:41:32.514Z,19.13
2022-11-13T04:44:18.732Z,15.30
2022-11-13T04:47:04.602Z,18.23
2022-11-13T04:49:50.677Z,17.40
2022-11-13T04:52:36.692Z,18.47
2022-11-13T04:55:22.863Z,16.33
2022-11-13T04:58:09.013Z,18.90
2022-11-13T05:00:54.842Z,18.07
2022-11-13T05:03:41.243Z,16.37
2022-11-13T05:06:27.236Z,17.37
2022-11-13T05:09:14.129Z,14.40
2022-11-13T05:12:00.390Z,17.73
2022-11-13T05:14:47.509Z,19.37
2022-11-13T05:17:34.078Z,17.00
2022-11-13T05:20:20.581Z,18.60
2022-11-13T05:23:07.033Z,17.73
2022-11-13T05:25:53.696Z,20.77
2022-11-13T05:28:41.031Z,15.83
2022-11-13T05:31:27.931Z,17.83
2022-11-13T05:34:13.930Z,13.80
2022-11-13T05:36:59.903Z,16.17
2022-11-13T05:39:46.131Z,16.93
2022-11-13T05:42:32.703Z,14.83
2022-11-13T05:45:18.552Z,16.80
2022-11-13T05:48:04.959Z,15.57
2022-11-13T05:50:51.665Z,14.70
2022-11-13T05:53:38.907Z,15.03
2022-11-13T05:56:30.042Z,14.23
2022-11-13T05:59:16.424Z,13.53
2022-11-13T06:02:02.557Z,14.70
2022-11-13T06:04:51.655Z,16.97
2022-11-13T06:07:37.761Z,15.17
2022-11-13T06:10:23.855Z,16.33
2022-11-13T06:13:09.456Z,13.30
2022-11-13T06:16:01.258Z,13.43
2022-11-13T06:18:49.050Z,13.47
2022-11-13T06:21:39.799Z,13.30
2022-11-13T06:24:26.008Z,16.33
2022-11-13T06:27:12.388Z,16.10
2022-11-13T06:29:59.040Z,12.70
2022-11-13T06:32:45.650Z,16.33
2022-11-13T06:35:32.144Z,13.80
2022-11-13T06:38:18.301Z,14.23
2022-11-13T06:41:05.676Z,16.10
2022-11-13T06:43:52.387Z,12.73
2022-11-13T06:46:38.357Z,12.87
2022-11-13T06:49:24.675Z,16.97
2022-11-13T06:52:10.840Z,14.27
2022-11-13T06:54:56.971Z,14.10
2022-11-13T06:57:43.312Z,15.67
2022-11-13T07:00:35.284Z,13.57
2022-11-13T07:03:26.464Z,13.57
2022-11-13T07:06:16.823Z,18.00
2022-11-13T07:09:03.130Z,13.67
2022-11-13T07:11:49.383Z,12.67
2022-11-13T07:14:35.872Z,12.83
2022-11-13T07:17:22.558Z,14.00
2022-11-13T07:20:09.464Z,12.23
2022-11-13T07:22:58.305Z,13.87
2022-11-13T07:25:44.602Z,13.67
2022-11-13T07:28:30.860Z,13.23
2022-11-13T07:31:18.765Z,13.33
2022-11-13T07:34:05.338Z,16.80
2022-11-13T07:36:51.392Z,14.53
2022-11-13T07:39:37.286Z,13.23
2022-11-13T07:42:24.466Z,12.63
2022-11-13T07:45:10.538Z,15.27
2022-11-13T07:48:01.298Z,14.77
2022-11-13T07:50:48.528Z,11.63
2022-11-13T07:53:39.174Z,11.10
2022-11-13T07:56:25.537Z,11.90
2022-11-13T07:59:11.660Z,16.03
2022-11-13T08:01:57.719Z,11.50
2022-11-13T08:04:43.343Z,14.00
2022-11-13T08:07:29.127Z,9.57
2022-11-13T08:10:16.394Z,10.43
2022-11-13T08:13:06.396Z,14.50
2022-11-13T08:15:52.086Z,10.97
2022-11-13T08:18:37.955Z,10.67
2022-11-13T08:21:24.662Z,9.63
2022-11-13T08:24:10.895Z,9.67
2022-11-13T08:26:58.048Z,9.97
2022-11-13T08:29:44.209Z,9.53
2022-11-13T08:32:29.972Z,10.67
2022-11-13T08:35:19.519Z,9.37
2022-11-13T08:38:08.996Z,11.13
2022-11-13T08:41:07.393Z,10.03
2022-11-13T08:43:55.334Z,10.50
2022-11-13T08:46:41.673Z,12.07
2022-11-13T08:49:27.953Z,10.87
2022-11-13T08:52:15.991Z,10.60
2022-11-13T08:55:02.101Z,11.57
2022-11-13T08:57:48.324Z,12.83
2022-11-13T09:00:34.220Z,10.93
2022-11-13T09:03:20.832Z,14.23
2022-11-13T09:06:09.112Z,12.40
2022-11-13T09:08:55.581Z,13.53
2022-11-13T09:11:41.814Z,11.60
2022-11-13T09:14:28.279Z,12.27
2022-11-13T09:17:14.376Z,11.73
2022-11-13T09:20:03.934Z,13.50
2022-11-13T09:23:01.196Z,12.27
2022-11-13T09:25:47.767Z,11.70
2022-11-13T09:28:33.755Z,12.37
2022-11-13T09:31:19.737Z,13.70
2022-11-13T09:34:06.168Z,12.37
2022-11-13T09:36:52.351Z,11.83
2022-11-13T09:39:38.501Z,13.77
2022-11-13T09:42:27.662Z,14.37
2022-11-13T09:45:15.856Z,12.20
2022-11-13T09:48:31.094Z,11.97
2022-11-13T09:51:23.015Z,13.17
2022-11-13T09:54:15.905Z,12.50
2022-11-13T09:57:26.618Z,14.07
2022-11-13T10:00:20.956Z,13.83
2022-11-13T10:04:00.756Z,14.07
2022-11-13T10:07:13.212Z,13.37
2022-11-13T10:10:28.236Z,12.70
2022-11-13T10:13:32.219Z,13.73
2022-11-13T10:16:43.916Z,13.20
2022-11-13T10:20:22.831Z,14.00
2022-11-13T10:23:26.996Z,14.90
2022-11-13T10:26:24.747Z,15.13
2022-11-13T10:29:20.142Z,16.07
2022-11-13T10:32:24.745Z,16.17
2022-11-13T10:35:56.643Z,15.20
2022-11-13T10:39:06.430Z,16.00
2022-11-13T10:41:54.842Z,15.63
2022-11-13T10:44:41.156Z,14.10
2022-11-13T10:48:01.927Z,14.77
2022-11-13T10:50:38.687Z,14.47
2022-11-13T10:53:27.343Z,15.63
2022-11-13T10:56:29.957Z,14.80
2022-11-13T10:59:19.771Z,15.03
2022-11-13T11:02:11.888Z,14.83
2022-11-13T11:05:36.291Z,15.00
2022-11-13T11:08:32.596Z,16.73
2022-11-13T11:11:38.236Z,18.83
2022-11-13T11:14:38.533Z,17.77
2022-11-13T11:17:54.338Z,18.20
2022-11-13T11:20:53.859Z,19.57
2022-11-13T11:24:04.882Z,19.17
2022-11-13T11:27:01.143Z,20.20
2022-11-13T11:30:07.385Z,21.20
2022-11-13T11:33:29.448Z,20.97
2022-11-13T11:36:32.084Z,21.43
2022-11-13T11:39:49.410Z,21.90
2022-11-13T11:43:21.169Z,22.20
2022-11-13T11:46:14.800Z,25.53
2022-11-13T11:49:01.812Z,24.53
2022-11-13T11:52:06.756Z,25.43
2022-11-13T11:55:18.941Z,26.20
2022-11-13T11:59:01.799Z,27.13
2022-11-13T12:02:33.638Z,31.23
2022-11-13T12:06:03.287Z,27.20
2022-11-13T12:09:05.511Z,27.77
2022-11-13T12:12:14.863Z,28.40
2022-11-13T12:15:16.339Z,29.10
2022-11-13T12:18:21.894Z,29.30
2022-11-13T12:21:22.547Z,32.93
2022-11-13T12:24:31.882Z,30.73
2022-11-13T12:27:49.491Z,31.40
2022-11-13T12:31:20.772Z,32.80
2022-11-13T12:34:54.424Z,33.87
2022-11-13T12:37:57.798Z,35.67
2022-11-13T12:41:10.213Z,31.60
2022-11-13T12:44:23.705Z,31.00
2022-11-13T12:47:10.069Z,33.60
2022-11-13T12:50:01.625Z,33.37
2022-11-13T12:53:06.445Z,26.70
2022-11-13T12:56:00.616Z,28.73
2022-11-13T12:59:35.585Z,25.57
2022-11-13T13:02:32.861Z,23.77
2022-11-13T13:05:45.606Z,22.67
2022-11-13T13:09:23.558Z,19.57
2022-11-13T13:12:20.851Z,17.43
2022-11-13T13:15:36.878Z,17.17
2022-11-13T13:18:33.658Z,13.73
2022-11-13T13:21:21.041Z,13.80
2022-11-13T13:24:28.926Z,15.60
2022-11-13T13:27:27.851Z,10.47
2022-11-13T13:30:21.392Z,10.27
2022-11-13T13:33:30.928Z,9.50
2022-11-13T13:36:38.442Z,9.80
2022-11-13T13:39:51.045Z,8.73
2022-11-13T13:43:12.079Z,9.83
2022-11-13T13:46:21.471Z,7.93
2022-11-13T13:49:21.990Z,8.30
2022-11-13T13:52:15.189Z,6.27
2022-11-13T13:55:04.708Z,5.93
2022-11-13T13:57:51.313Z,5.50
2022-11-13T14:00:53.192Z,7.17
2022-11-13T14:03:42.889Z,7.63
2022-11-13T14:06:28.804Z,5.83
2022-11-13T14:09:25.080Z,7.00
2022-11-13T14:12:22.456Z,5.53
2022-11-13T14:15:33.437Z,4.80
2022-11-13T14:18:19.929Z,6.17
2022-11-13T14:21:16.721Z,7.10
2022-11-13T14:24:03.665Z,5.83
2022-11-13T14:26:53.844Z,9.00
2022-11-13T14:29:46.372Z,6.53
2022-11-13T14:32:40.913Z,7.90
2022-11-13T14:35:29.468Z,8.63
2022-11-13T14:38:25.616Z,7.73
2022-11-13T14:41:37.247Z,7.57
2022-11-13T14:44:32.114Z,7.57
2022-11-13T14:47:29.347Z,5.43
2022-11-13T14:50:20.218Z,7.03
2022-11-13T14:53:09.799Z,7.80
2022-11-13T14:56:02.663Z,7.47
2022-11-13T14:58:48.791Z,8.67
2022-11-13T15:01:35.586Z,6.47
2022-11-13T15:04:21.661Z,5.83
2022-11-13T15:07:30.237Z,7.67
2022-11-13T15:10:24.697Z,7.93
2022-11-13T15:13:17.319Z,8.63
2022-11-13T15:16:03.024Z,8.20
2022-11-13T15:19:05.307Z,12.97
2022-11-13T15:22:25.960Z,10.80
2022-11-13T15:24:58.071Z,18.07
2022-11-13T15:27:44.162Z,9.27
2022-11-13T15:30:30.121Z,11.97
2022-11-13T15:33:17.321Z,21.87
2022-11-13T15:36:03.169Z,11.40
2022-11-13T15:38:48.807Z,11.53
2022-11-13T15:41:36.261Z,16.03
2022-11-13T15:44:22.397Z,11.60
2022-11-13T15:47:34.692Z,21.53
2022-11-13T15:50:20.959Z,11.87
2022-11-13T15:53:09.646Z,11.07
2022-11-13T15:55:56.243Z,10.17
2022-11-13T15:58:42.335Z,24.00
2022-11-13T16:01:28.204Z,18.37
2022-11-13T16:04:16.340Z,23.43
2022-11-13T16:07:02.218Z,14.33
2022-11-13T16:09:48.814Z,11.13
2022-11-13T16:12:34.853Z,12.23
2022-11-13T16:15:21.662Z,15.93
2022-11-13T16:18:22.726Z,12.07
2022-11-13T16:21:13.540Z,13.37
2022-11-13T16:23:59.621Z,13.03
2022-11-13T16:26:51.718Z,10.67
2022-11-13T16:29:37.790Z,7.03
2022-11-13T16:32:23.763Z,8.30
2022-11-13T16:35:18.769Z,8.87
2022-11-13T16:38:13.873Z,8.40
2022-11-13T16:40:59.822Z,8.83
2022-11-13T16:43:45.959Z,9.60
2022-11-13T16:46:34.991Z,8.60
2022-11-13T16:49:20.935Z,10.60
2022-11-13T16:52:07.273Z,8.70
2022-11-13T16:54:53.904Z,8.50
2022-11-13T16:57:40.740Z,8.63
2022-11-13T17:00:27.974Z,8.00
2022-11-13T17:03:13.933Z,9.10
2022-11-13T17:05:59.734Z,8.43
2022-11-13T17:08:45.809Z,8.10
2022-11-13T17:11:32.740Z,8.23
2022-11-13T17:14:18.629Z,9.90
2022-11-13T17:17:06.446Z,8.33
2022-11-13T17:19:52.533Z,7.33
2022-11-13T17:22:48.338Z,15.40
2022-11-13T17:25:37.187Z,11.67
2022-11-13T17:28:23.025Z,10.70
2022-11-13T17:31:12.766Z,7.90
2022-11-13T17:33:58.759Z,14.53
2022-11-13T17:36:44.386Z,17.60
2022-11-13T17:39:30.198Z,14.77
2022-11-13T17:42:15.835Z,10.50
2022-11-13T17:45:02.172Z,10.60
2022-11-13T17:47:50.073Z,12.63
2022-11-13T17:50:35.994Z,13.73
2022-11-13T17:53:21.874Z,12.27
2022-11-13T17:56:11.768Z,15.20
2022-11-13T17:58:57.936Z,10.13
2022-11-13T18:01:43.864Z,9.80
2022-11-13T18:04:31.585Z,17.60
2022-11-13T18:07:17.332Z,17.07
2022-11-13T18:10:04.841Z,12.80
2022-11-13T18:12:50.984Z,7.47
2022-11-13T18:15:41.720Z,8.17
2022-11-13T18:18:27.536Z,8.57
2022-11-13T18:21:24.012Z,8.73
2022-11-13T18:24:18.993Z,10.53
2022-11-13T18:27:08.259Z,6.73
2022-11-13T18:29:54.386Z,10.93
2022-11-13T18:32:40.441Z,10.00
2022-11-13T18:35:26.388Z,6.23
2022-11-13T18:38:12.183Z,6.23
2022-11-13T18:41:11.602Z,6.00
2022-11-13T18:43:58.045Z,6.10
2022-11-13T18:46:44.015Z,8.17
2022-11-13T18:49:29.804Z,7.63
2022-11-13T18:52:15.451Z,6.50
2022-11-13T18:55:01.464Z,5.73
2022-11-13T18:57:47.225Z,7.97
2022-11-13T19:00:32.928Z,6.97
2022-11-13T19:03:18.755Z,6.83
2022-11-13T19:06:09.678Z,7.60
2022-11-13T19:08:58.014Z,7.33
2022-11-13T19:11:45.488Z,7.57
2022-11-13T19:14:32.318Z,7.73
2022-11-13T19:17:18.581Z,6.93
2022-11-13T19:20:04.859Z,6.37
2022-11-13T19:22:50.682Z,8.13
2022-11-13T19:25:36.481Z,9.17
2022-11-13T19:28:22.988Z,11.97
2022-11-13T19:31:20.294Z,8.67
2022-11-13T19:34:07.953Z,12.20
2022-11-13T19:36:54.426Z,8.43
2022-11-13T19:39:40.493Z,7.83
2022-11-13T19:42:26.378Z,6.77
2022-11-13T19:45:12.273Z,6.63
2022-11-13T19:47:58.432Z,8.13
2022-11-13T19:50:47.413Z,7.53
2022-11-13T19:53:33.655Z,8.20
2022-11-13T19:56:21.658Z,8.23
2022-11-13T19:59:11.438Z,8.00
2022-11-13T20:01:57.426Z,7.63
2022-11-13T20:04:43.958Z,6.63
2022-11-13T20:07:30.217Z,7.43
2022-11-13T20:10:17.295Z,7.23
2022-11-13T20:13:03.493Z,9.00
2022-11-13T20:15:55.614Z,7.50
2022-11-13T20:18:43.051Z,7.60
2022-11-13T20:21:31.508Z,7.60
2022-11-13T20:24:17.532Z,9.27
2022-11-13T20:27:03.615Z,7.47
2022-11-13T20:29:49.483Z,8.63
2022-11-13T20:32:39.665Z,9.80
2022-11-13T20:35:25.763Z,9.47
2022-11-13T20:38:11.532Z,9.53
2022-11-13T20:40:57.522Z,9.77
2022-11-13T20:43:43.652Z,9.87
2022-11-13T20:46:30.801Z,8.97
2022-11-13T20:49:16.847Z,9.40
2022-11-13T20:52:07.190Z,11.07
2022-11-13T20:54:53.556Z,10.33
2022-11-13T20:57:41.237Z,14.63
2022-11-13T21:00:31.107Z,12.30
2022-11-13T21:03:18.949Z,16.63
2022-11-13T21:06:05.057Z,16.37
2022-11-13T21:08:56.587Z,14.50
2022-11-13T21:11:42.989Z,10.47
2022-11-13T21:14:30.131Z,12.57
2022-11-13T21:17:16.370Z,12.97
2022-11-13T21:20:04.581Z,10.83
2022-11-13T21:22:51.143Z,12.77
2022-11-13T21:25:37.481Z,11.30
2022-11-13T21:28:25.308Z,12.33
2022-11-13T21:31:20.189Z,9.53
2022-11-13T21:34:06.598Z,10.27
2022-11-13T21:36:52.681Z,10.97
2022-11-13T21:39:38.490Z,10.57
2022-11-13T21:42:24.967Z,9.67
2022-11-13T21:45:11.476Z,12.63
2022-11-13T21:47:57.674Z,13.63
2022-11-13T21:50:44.106Z,13.53
2022-11-13T21:53:30.030Z,12.17
2022-11-13T21:56:16.179Z,10.87
2022-11-13T21:59:03.217Z,10.60
2022-11-13T22:01:49.895Z,11.50
2022-11-13T22:04:36.268Z,8.37
2022-11-13T22:07:22.827Z,10.07
2022-11-13T22:10:09.070Z,11.63
2022-11-13T22:12:55.181Z,10.97
2022-11-13T22:15:40.761Z,17.20
2022-11-13T22:18:27.029Z,9.50
2022-11-13T22:21:15.326Z,15.53
2022-11-13T22:24:02.339Z,17.23
2022-11-13T22:26:50.570Z,13.10
2022-11-13T22:29:36.858Z,15.47
2022-11-13T22:32:23.086Z,13.03
2022-11-13T22:35:09.324Z,16.87
2022-11-13T22:37:54.949Z,15.30
2022-11-13T22:40:40.913Z,22.33
2022-11-13T22:43:26.597Z,17.33
2022-11-13T22:46:15.870Z,13.00
2022-11-13T22:49:03.602Z,13.53
2022-11-13T22:51:49.383Z,13.40
2022-11-13T22:54:35.180Z,13.20
2022-11-13T22:57:20.754Z,12.40
2022-11-13T23:00:09.515Z,16.17
2022-11-13T23:02:55.556Z,14.20
2022-11-13T23:05:41.615Z,13.70
2022-11-13T23:08:27.648Z,16.10
2022-11-13T23:11:28.633Z,15.43
2022-11-13T23:14:15.878Z,14.90
2022-11-13T23:17:01.773Z,14.50
2022-11-13T23:19:47.524Z,13.97
2022-11-13T23:22:33.122Z,13.20
2022-11-13T23:25:18.895Z,13.30
2022-11-13T23:28:04.677Z,17.03
2022-11-13T23:30:50.668Z,13.13
2022-11-13T23:33:38.115Z,14.27
2022-11-13T23:36:24.012Z,12.60
2022-11-13T23:39:09.573Z,13.53
2022-11-13T23:41:55.184Z,13.50
2022-11-13T23:44:41.062Z,13.10
2022-11-13T23:47:26.722Z,13.13
2022-11-13T23:50:12.675Z,11.43
2022-11-13T23:52:58.482Z,15.13
2022-11-13T23:55:44.347Z,13.53
2022-11-13T23:58:32.109Z,13.27
